createdAt,value
2018-05-12T00:02:11.848Z,95.10
2018-05-12T00:04:39.386Z,95.20
2018-05-12T00:07:07.695Z,94.90
2018-05-12T00:09:35.316Z,94.90
2018-05-12T00:12:02.867Z,96.10
2018-05-12T00:14:30.419Z,96.10
2018-05-12T00:16:58.012Z,95.80
2018-05-12T00:19:25.563Z,96.60
2018-05-12T00:21:53.096Z,96.70
2018-05-12T00:24:20.645Z,96.50
2018-05-12T00:26:48.191Z,96.90
2018-05-12T00:29:16.508Z,96.90
2018-05-12T00:31:44.076Z,96.80
2018-05-12T00:34:11.635Z,97.00
2018-05-12T00:36:39.179Z,97.10
2018-05-12T00:39:06.744Z,97.20
2018-05-12T00:41:34.316Z,97.30
2018-05-12T00:44:01.862Z,97.20
2018-05-12T00:46:30.170Z,97.40
2018-05-12T00:48:57.726Z,97.40
2018-05-12T00:51:25.270Z,97.30
2018-05-12T00:53:53.574Z,97.70
2018-05-12T00:56:21.108Z,97.70
2018-05-12T00:58:49.419Z,97.50
2018-05-12T01:01:16.964Z,97.50
2018-05-12T01:03:44.505Z,97.80
2018-05-12T01:06:12.046Z,97.60
2018-05-12T01:08:39.611Z,97.70
2018-05-12T01:11:07.173Z,97.70
2018-05-12T01:13:34.798Z,97.70
2018-05-12T01:16:02.350Z,97.70
2018-05-12T01:18:29.895Z,97.40
2018-05-12T01:20:58.226Z,97.50
2018-05-12T01:23:25.770Z,97.50
2018-05-12T01:25:53.335Z,97.20
2018-05-12T01:28:20.885Z,97.20
2018-05-12T01:30:49.207Z,97.50
2018-05-12T01:33:16.770Z,97.50
2018-05-12T01:35:44.316Z,97.20
2018-05-12T01:38:11.858Z,97.60
2018-05-12T01:40:39.455Z,97.80
2018-05-12T01:43:06.993Z,98.00
2018-05-12T01:45:34.533Z,97.90
2018-05-12T01:48:02.861Z,98.00
2018-05-12T01:50:30.406Z,98.00
2018-05-12T01:52:57.935Z,97.90
2018-05-12T01:55:25.502Z,98.10
2018-05-12T01:57:53.838Z,98.30
2018-05-12T02:00:21.395Z,98.20
2018-05-12T02:02:48.978Z,98.50
2018-05-12T02:05:16.536Z,98.60
2018-05-12T02:07:44.092Z,98.60
2018-05-12T02:10:11.638Z,98.70
2018-05-12T02:12:39.203Z,99.10
2018-05-12T02:15:06.733Z,99.10
2018-05-12T02:17:34.265Z,99.10
2018-05-12T02:20:01.799Z,99.30
2018-05-12T02:22:29.351Z,99.30
2018-05-12T02:24:56.934Z,99.60
2018-05-12T02:27:24.482Z,99.50
2018-05-12T02:29:52.022Z,99.50
2018-05-12T02:32:20.330Z,99.90
2018-05-12T02:34:47.899Z,99.90
2018-05-12T02:37:15.446Z,99.90
2018-05-12T02:39:43.759Z,99.90
2018-05-12T02:42:11.289Z,99.90
2018-05-12T02:44:39.605Z,99.90
2018-05-12T02:47:07.164Z,99.90
2018-05-12T02:49:34.710Z,99.90
2018-05-12T02:52:02.283Z,99.90
2018-05-12T02:54:29.880Z,99.90
2018-05-12T02:56:57.455Z,99.90
2018-05-12T02:59:25.006Z,99.90
2018-05-12T03:01:52.570Z,99.90
2018-05-12T03:04:20.145Z,99.90
2018-05-12T03:06:47.701Z,99.90
2018-05-12T03:09:15.268Z,99.90
2018-05-12T03:11:42.824Z,99.90
2018-05-12T03:14:10.388Z,99.90
2018-05-12T03:16:37.945Z,99.90
2018-05-12T03:19:05.491Z,99.90
2018-05-12T03:21:33.042Z,99.90
2018-05-12T03:24:00.591Z,99.90
2018-05-12T03:26:28.893Z,99.90
2018-05-12T03:28:56.435Z,99.90
2018-05-12T03:31:24.743Z,99.90
2018-05-12T03:33:52.281Z,99.90
2018-05-12T03:36:20.591Z,99.90
2018-05-12T03:38:48.138Z,99.90
2018-05-12T03:41:15.692Z,99.90
2018-05-12T03:43:43.238Z,99.90
2018-05-12T03:46:10.805Z,99.90
2018-05-12T03:48:39.124Z,99.80
2018-05-12T03:51:06.661Z,99.90
2018-05-12T03:53:34.963Z,99.80
2018-05-12T03:56:02.551Z,99.90
2018-05-12T03:58:30.135Z,99.70
2018-05-12T04:00:57.691Z,99.90
2018-05-12T04:03:25.271Z,99.90
2018-05-12T04:06:04.763Z,99.90
2018-05-12T04:08:44.137Z,99.90
2018-05-12T04:11:23.563Z,99.90
2018-05-12T04:13:51.101Z,99.90
2018-05-12T04:16:18.657Z,99.90
2018-05-12T04:18:46.228Z,99.90
2018-05-12T04:21:13.804Z,99.90
2018-05-12T04:23:41.351Z,99.90
2018-05-12T04:26:08.898Z,99.90
2018-05-12T04:28:36.461Z,99.90
2018-05-12T04:31:04.074Z,99.90
2018-05-12T04:33:31.639Z,99.90
2018-05-12T04:35:59.210Z,99.90
2018-05-12T04:38:26.755Z,99.90
2018-05-12T04:40:54.317Z,99.90
2018-05-12T04:43:21.864Z,99.90
2018-05-12T04:45:49.423Z,99.90
2018-05-12T04:48:16.961Z,99.90
2018-05-12T04:50:45.294Z,99.90
2018-05-12T04:53:12.866Z,99.90
2018-05-12T04:55:40.454Z,99.90
2018-05-12T04:58:08.008Z,99.90
2018-05-12T05:00:35.584Z,99.90
2018-05-12T05:03:03.148Z,99.90
2018-05-12T05:05:30.722Z,99.90
2018-05-12T05:07:59.039Z,99.90
2018-05-12T05:10:26.608Z,99.90
2018-05-12T05:12:54.202Z,99.90
2018-05-12T05:15:22.493Z,99.90
2018-05-12T05:17:50.062Z,99.90
2018-05-12T05:20:17.638Z,99.90
2018-05-12T05:22:45.177Z,99.90
2018-05-12T05:25:12.726Z,99.90
2018-05-12T05:27:40.261Z,99.90
2018-05-12T05:30:07.816Z,99.90
2018-05-12T05:32:35.372Z,99.90
2018-05-12T05:35:03.727Z,99.90
2018-05-12T05:37:31.271Z,99.90
2018-05-12T05:39:58.829Z,99.90
2018-05-12T05:42:26.399Z,99.90
2018-05-12T05:44:54.044Z,99.90
2018-05-12T05:47:21.639Z,99.90
2018-05-12T05:49:49.211Z,99.90
2018-05-12T05:52:16.783Z,99.90
2018-05-12T05:54:44.357Z,99.90
2018-05-12T05:57:12.664Z,99.90
2018-05-12T05:59:40.221Z,99.90
2018-05-12T06:02:07.764Z,99.90
2018-05-12T06:04:35.321Z,99.90
2018-05-12T06:07:02.882Z,99.70
2018-05-12T06:09:30.436Z,99.60
2018-05-12T06:11:57.982Z,99.90
2018-05-12T06:14:25.563Z,99.90
2018-05-12T06:16:53.183Z,99.90
2018-05-12T06:19:20.731Z,99.90
2018-05-12T06:21:49.074Z,99.90
2018-05-12T06:24:16.623Z,99.90
2018-05-12T06:26:44.170Z,99.90
2018-05-12T06:29:11.715Z,99.90
2018-05-12T06:31:39.323Z,99.40
2018-05-12T06:34:06.902Z,99.50
2018-05-12T06:36:34.446Z,99.50
2018-05-12T06:39:02.062Z,99.30
2018-05-12T06:41:30.380Z,98.50
2018-05-12T06:43:57.927Z,98.50
2018-05-12T06:46:25.471Z,98.40
2018-05-12T06:48:53.795Z,98.10
2018-05-12T06:51:21.370Z,98.20
2018-05-12T06:53:48.909Z,97.90
2018-05-12T06:56:16.456Z,98.20
2018-05-12T06:58:44.010Z,97.80
2018-05-12T07:01:12.329Z,97.20
2018-05-12T07:03:39.865Z,97.20
2018-05-12T07:06:07.419Z,97.00
2018-05-12T07:08:35.728Z,96.40
2018-05-12T07:11:03.299Z,96.40
2018-05-12T07:13:30.874Z,96.40
2018-05-12T07:15:58.438Z,96.00
2018-05-12T07:18:26.011Z,96.10
2018-05-12T07:20:53.559Z,96.40
2018-05-12T07:23:21.121Z,96.70
2018-05-12T07:25:48.665Z,95.80
2018-05-12T07:28:16.201Z,95.50
2018-05-12T07:30:44.510Z,95.40
2018-05-12T07:33:12.084Z,95.40
2018-05-12T07:35:39.655Z,94.90
2018-05-12T07:38:07.237Z,95.30
2018-05-12T07:40:34.802Z,94.90
2018-05-12T07:43:02.353Z,93.80
2018-05-12T07:45:29.935Z,93.40
2018-05-12T07:47:57.556Z,93.40
2018-05-12T07:50:25.998Z,93.10
2018-05-12T07:52:54.339Z,93.70
2018-05-12T07:55:23.328Z,94.20
2018-05-12T07:57:50.922Z,93.50
2018-05-12T08:00:18.505Z,92.70
2018-05-12T08:02:46.051Z,93.20
2018-05-12T08:05:13.630Z,93.20
2018-05-12T08:07:41.226Z,93.10
2018-05-12T08:10:09.574Z,93.00
2018-05-12T08:12:37.117Z,93.00
2018-05-12T08:15:04.656Z,93.30
2018-05-12T08:17:32.223Z,93.40
2018-05-12T08:19:59.784Z,93.30
2018-05-12T08:22:27.361Z,93.10
2018-05-12T08:24:54.924Z,93.20
2018-05-12T08:27:23.454Z,93.00
2018-05-12T08:29:51.009Z,92.40
2018-05-12T08:32:18.550Z,92.70
2018-05-12T08:34:46.094Z,91.90
2018-05-12T08:37:13.659Z,90.90
2018-05-12T08:39:41.191Z,90.10
2018-05-12T08:42:08.733Z,90.30
2018-05-12T08:44:36.298Z,90.20
2018-05-12T08:47:04.645Z,91.10
2018-05-12T08:49:32.218Z,91.20
2018-05-12T08:51:59.797Z,91.20
2018-05-12T08:54:27.346Z,91.60
2018-05-12T08:56:54.890Z,91.10
2018-05-12T08:59:22.448Z,90.70
2018-05-12T09:01:49.995Z,91.00
2018-05-12T09:04:18.301Z,90.00
2018-05-12T09:06:45.867Z,90.10
2018-05-12T09:09:13.508Z,89.70
2018-05-12T09:11:41.054Z,90.20
2018-05-12T09:14:08.593Z,90.70
2018-05-12T09:16:36.129Z,90.20
2018-05-12T09:19:03.683Z,89.80
2018-05-12T09:21:31.227Z,90.20
2018-05-12T09:23:59.548Z,87.40
2018-05-12T09:26:27.092Z,87.40
2018-05-12T09:28:54.670Z,87.80
2018-05-12T09:31:22.233Z,88.70
2018-05-12T09:33:49.841Z,86.80
2018-05-12T09:36:17.391Z,87.80
2018-05-12T09:38:44.978Z,87.30
2018-05-12T09:41:12.594Z,87.40
2018-05-12T09:43:40.175Z,87.40
2018-05-12T09:46:07.735Z,87.70
2018-05-12T09:48:35.306Z,87.70
2018-05-12T09:51:02.892Z,86.80
2018-05-12T09:53:30.491Z,87.10
2018-05-12T09:55:58.071Z,87.50
2018-05-12T09:58:25.669Z,86.60
2018-05-12T10:00:53.267Z,84.70
2018-05-12T10:03:21.688Z,85.20
2018-05-12T10:05:49.200Z,85.10
2018-05-12T10:08:16.746Z,84.30
2018-05-12T10:10:44.368Z,84.40
2018-05-12T10:13:11.903Z,83.20
2018-05-12T10:15:39.472Z,84.30
2018-05-12T10:18:07.041Z,83.70
2018-05-12T10:20:34.631Z,83.00
2018-05-12T10:23:02.990Z,81.00
2018-05-12T10:25:30.628Z,81.00
2018-05-12T10:27:58.240Z,80.50
2018-05-12T10:30:25.773Z,81.20
2018-05-12T10:32:53.309Z,79.70
2018-05-12T10:35:20.910Z,79.60
2018-05-12T10:37:48.549Z,79.10
2018-05-12T10:40:16.127Z,78.40
2018-05-12T10:42:43.784Z,78.40
2018-05-12T10:45:11.334Z,75.90
2018-05-12T10:47:38.951Z,77.60
2018-05-12T10:50:06.538Z,76.90
2018-05-12T10:52:34.082Z,75.10
2018-05-12T10:55:01.670Z,73.40
2018-05-12T10:57:29.253Z,71.40
2018-05-12T10:59:56.808Z,72.00
2018-05-12T11:02:24.361Z,70.10
2018-05-12T11:04:51.906Z,72.10
2018-05-12T11:07:19.515Z,72.40
2018-05-12T11:09:47.205Z,73.60
2018-05-12T11:12:14.710Z,72.40
2018-05-12T11:14:42.300Z,70.10
2018-05-12T11:17:09.889Z,70.70
2018-05-12T11:19:37.453Z,70.70
2018-05-12T11:22:05.005Z,70.70
2018-05-12T11:24:33.542Z,69.20
2018-05-12T11:27:01.140Z,69.50
2018-05-12T11:29:28.716Z,70.20
2018-05-12T11:31:56.363Z,70.70
2018-05-12T11:34:23.910Z,68.50
2018-05-12T11:36:51.539Z,69.80
2018-05-12T11:39:19.077Z,71.10
2018-05-12T11:41:46.614Z,70.50
2018-05-12T11:44:14.179Z,69.20
2018-05-12T11:46:41.731Z,67.50
2018-05-12T11:49:09.293Z,67.60
2018-05-12T11:51:36.902Z,66.60
2018-05-12T11:54:04.554Z,64.20
2018-05-12T11:56:32.059Z,65.60
2018-05-12T11:59:00.393Z,63.50
2018-05-12T12:01:28.501Z,63.50
2018-05-12T12:03:56.052Z,62.70
2018-05-12T12:06:23.615Z,64.80
2018-05-12T12:08:51.200Z,66.50
2018-05-12T12:11:19.527Z,62.70
2018-05-12T12:13:47.068Z,62.70
2018-05-12T12:16:14.653Z,62.60
2018-05-12T12:18:42.233Z,62.90
2018-05-12T12:21:09.827Z,61.50
2018-05-12T12:23:37.404Z,60.30
2018-05-12T12:26:04.972Z,58.70
2018-05-12T12:28:33.343Z,56.70
2018-05-12T12:31:00.935Z,56.70
2018-05-12T12:33:28.614Z,59.50
2018-05-12T12:35:56.182Z,59.30
2018-05-12T12:38:23.853Z,59.50
2018-05-12T12:40:51.455Z,62.10
2018-05-12T12:43:19.058Z,61.00
2018-05-12T12:45:47.375Z,60.40
2018-05-12T12:48:14.914Z,58.70
2018-05-12T12:50:42.477Z,57.80
2018-05-12T12:53:11.330Z,58.00
2018-05-12T12:55:38.905Z,59.00
2018-05-12T12:58:06.467Z,58.90
2018-05-12T13:00:34.817Z,58.60
2018-05-12T13:03:02.385Z,58.60
2018-05-12T13:05:29.943Z,59.70
2018-05-12T13:07:57.523Z,59.40
2018-05-12T13:10:25.084Z,59.20
2018-05-12T13:12:52.689Z,61.00
2018-05-12T13:15:21.126Z,60.90
2018-05-12T13:17:48.673Z,60.90
2018-05-12T13:20:16.216Z,61.80
2018-05-12T13:22:44.566Z,62.10
2018-05-12T13:25:12.116Z,62.10
2018-05-12T13:27:39.673Z,60.30
2018-05-12T13:30:07.214Z,60.80
2018-05-12T13:32:34.763Z,59.00
2018-05-12T13:35:02.348Z,58.00
2018-05-12T13:37:29.940Z,57.70
2018-05-12T13:39:57.518Z,58.30
2018-05-12T13:42:25.099Z,59.00
2018-05-12T13:44:53.419Z,57.90
2018-05-12T13:47:20.985Z,57.80
2018-05-12T13:49:48.551Z,60.20
2018-05-12T13:52:16.131Z,61.10
2018-05-12T13:54:43.691Z,61.10
2018-05-12T13:57:11.241Z,60.40
2018-05-12T13:59:38.801Z,59.20
2018-05-12T14:02:06.401Z,60.90
2018-05-12T14:04:33.969Z,61.60
2018-05-12T14:07:01.539Z,61.00
2018-05-12T14:09:29.129Z,59.30
2018-05-12T14:11:56.701Z,60.30
2018-05-12T14:14:24.259Z,60.20
2018-05-12T14:16:52.601Z,59.50
2018-05-12T14:19:20.145Z,59.50
2018-05-12T14:21:47.715Z,60.20
2018-05-12T14:24:15.279Z,61.90
2018-05-12T14:26:42.846Z,61.30
2018-05-12T14:29:10.447Z,60.70
2018-05-12T14:31:38.822Z,60.20
2018-05-12T14:34:06.389Z,60.30
2018-05-12T14:36:33.987Z,61.50
2018-05-12T14:39:01.542Z,61.00
2018-05-12T14:41:29.884Z,60.40
2018-05-12T14:43:58.441Z,60.40
2018-05-12T14:46:26.079Z,61.50
2018-05-12T14:48:53.670Z,61.70
2018-05-12T14:51:21.226Z,60.60
2018-05-12T14:53:48.761Z,60.60
2018-05-12T14:56:17.109Z,62.60
2018-05-12T14:58:44.701Z,62.60
2018-05-12T15:01:13.021Z,65.10
2018-05-12T15:03:40.594Z,65.20
2018-05-12T15:06:08.148Z,66.00
2018-05-12T15:08:35.724Z,66.40
2018-05-12T15:11:03.317Z,66.50
2018-05-12T15:13:30.899Z,66.40
2018-05-12T15:15:59.246Z,64.60
2018-05-12T15:18:26.813Z,64.60
2018-05-12T15:20:54.400Z,65.20
2018-05-12T15:23:21.973Z,64.60
2018-05-12T15:25:49.547Z,65.30
2018-05-12T15:28:17.883Z,65.30
2018-05-12T15:30:45.467Z,65.40
2018-05-12T15:33:13.051Z,65.10
2018-05-12T15:35:40.593Z,65.30
2018-05-12T15:38:08.137Z,65.30
2018-05-12T15:40:35.687Z,65.20
2018-05-12T15:43:03.262Z,63.30
2018-05-12T15:45:30.814Z,63.60
2018-05-12T15:47:58.387Z,63.50
2018-05-12T15:50:25.967Z,60.40
2018-05-12T15:52:53.543Z,61.20
2018-05-12T15:55:21.897Z,61.10
2018-05-12T15:57:49.447Z,61.10
2018-05-12T16:00:16.991Z,60.70
2018-05-12T16:02:45.341Z,61.20
2018-05-12T16:05:12.903Z,61.30
2018-05-12T16:07:40.455Z,62.00
2018-05-12T16:10:08.122Z,59.80
2018-05-12T16:12:35.674Z,60.30
2018-05-12T16:15:04.073Z,62.30
2018-05-12T16:17:31.648Z,62.30
2018-05-12T16:19:59.205Z,62.80
2018-05-12T16:22:26.823Z,63.60
2018-05-12T16:24:54.369Z,63.60
2018-05-12T16:27:22.874Z,63.90
2018-05-12T16:29:50.431Z,64.00
2018-05-12T16:32:17.970Z,64.80
2018-05-12T16:34:45.543Z,66.00
2018-05-12T16:37:13.910Z,66.60
2018-05-12T16:39:41.435Z,66.60
2018-05-12T16:42:09.023Z,67.80
2018-05-12T16:44:36.672Z,67.80
2018-05-12T16:47:04.174Z,68.10
2018-05-12T16:49:31.750Z,68.20
2018-05-12T16:52:00.094Z,68.80
2018-05-12T16:54:27.678Z,68.80
2018-05-12T16:56:56.040Z,69.10
2018-05-12T16:59:23.609Z,69.20
2018-05-12T17:01:51.167Z,69.40
2018-05-12T17:04:18.739Z,70.00
2018-05-12T17:06:46.335Z,70.40
2018-05-12T17:09:14.669Z,70.20
2018-05-12T17:11:42.234Z,70.20
2018-05-12T17:14:09.820Z,70.00
2018-05-12T17:16:37.405Z,70.10
2018-05-12T17:19:05.769Z,70.10
2018-05-12T17:21:33.359Z,70.10
2018-05-12T17:24:00.939Z,70.60
2018-05-12T17:26:28.505Z,70.80
2018-05-12T17:28:56.083Z,71.50
2018-05-12T17:31:23.645Z,71.30
2018-05-12T17:33:51.243Z,71.30
2018-05-12T17:36:18.786Z,71.60
2018-05-12T17:38:46.335Z,71.50
2018-05-12T17:41:13.922Z,71.80
2018-05-12T17:43:41.466Z,72.00
2018-05-12T17:46:09.037Z,72.40
2018-05-12T17:48:36.622Z,72.30
2018-05-12T17:51:04.995Z,72.50
2018-05-12T17:53:32.615Z,72.60
2018-05-12T17:56:01.109Z,73.00
2018-05-12T17:58:28.686Z,73.50
2018-05-12T18:00:56.264Z,73.60
2018-05-12T18:03:24.089Z,73.80
2018-05-12T18:05:51.650Z,74.00
2018-05-12T18:08:20.032Z,74.20
2018-05-12T18:10:47.604Z,74.50
2018-05-12T18:13:15.946Z,75.20
2018-05-12T18:15:43.498Z,75.10
2018-05-12T18:18:11.037Z,75.00
2018-05-12T18:20:39.762Z,75.00
2018-05-12T18:23:07.477Z,75.50
2018-05-12T18:25:34.969Z,75.50
2018-05-12T18:28:03.132Z,75.80
2018-05-12T18:30:30.726Z,75.80
2018-05-12T18:32:58.311Z,76.30
2018-05-12T18:35:25.890Z,76.40
2018-05-12T18:37:53.533Z,76.50
2018-05-12T18:40:21.115Z,76.80
2018-05-12T18:42:49.854Z,77.20
2018-05-12T18:45:17.438Z,77.50
2018-05-12T18:47:45.039Z,77.30
2018-05-12T18:50:12.792Z,77.50
2018-05-12T18:52:40.372Z,78.10
2018-05-12T18:55:07.981Z,78.10
2018-05-12T18:57:35.617Z,78.10
2018-05-12T19:00:04.000Z,78.60
2018-05-12T19:02:31.566Z,78.50
2018-05-12T19:04:59.915Z,78.80
2018-05-12T19:07:27.486Z,78.80
2018-05-12T19:09:55.115Z,79.00
2018-05-12T19:12:22.691Z,78.90
2018-05-12T19:14:50.247Z,79.50
2018-05-12T19:17:17.821Z,79.80
2018-05-12T19:19:45.423Z,79.70
2018-05-12T19:22:12.999Z,80.00
2018-05-12T19:24:40.659Z,80.20
2018-05-12T19:27:08.239Z,80.20
2018-05-12T19:29:35.792Z,80.50
2018-05-12T19:32:04.172Z,80.60
2018-05-12T19:34:31.757Z,80.90
2018-05-12T19:36:59.382Z,81.00
2018-05-12T19:39:26.995Z,81.10
2018-05-12T19:41:54.585Z,81.40
2018-05-12T19:44:22.178Z,81.60
2018-05-12T19:46:49.741Z,81.70
2018-05-12T19:49:17.318Z,82.00
2018-05-12T19:51:44.905Z,82.20
2018-05-12T19:54:12.475Z,82.40
2018-05-12T19:56:40.079Z,82.80
2018-05-12T19:59:07.670Z,82.80
2018-05-12T20:01:35.231Z,83.00
2018-05-12T20:04:02.861Z,83.20
2018-05-12T20:06:30.442Z,83.40
2018-05-12T20:08:58.015Z,83.40
2018-05-12T20:11:25.576Z,83.50
2018-05-12T20:13:53.143Z,83.70
2018-05-12T20:16:20.686Z,84.20
2018-05-12T20:18:48.270Z,84.50
2018-05-12T20:21:15.899Z,84.50
2018-05-12T20:23:43.422Z,84.80
2018-05-12T20:26:10.981Z,84.90
2018-05-12T20:28:38.531Z,84.70
2018-05-12T20:31:06.330Z,85.00
2018-05-12T20:33:33.840Z,85.20
2018-05-12T20:36:01.376Z,85.60
2018-05-12T20:38:28.911Z,85.20
2018-05-12T20:40:56.461Z,85.20
2018-05-12T20:43:24.035Z,85.60
2018-05-12T20:45:51.604Z,85.50
2018-05-12T20:48:19.219Z,85.70
2018-05-12T20:50:46.810Z,85.90
2018-05-12T20:53:14.382Z,86.20
2018-05-12T20:55:41.988Z,86.50
2018-05-12T20:58:10.317Z,86.50
2018-05-12T21:00:37.914Z,86.50
2018-05-12T21:03:05.530Z,86.80
2018-05-12T21:05:33.015Z,86.80
2018-05-12T21:08:00.554Z,87.00
2018-05-12T21:10:28.097Z,86.60
2018-05-12T21:12:56.431Z,86.90
2018-05-12T21:15:24.054Z,87.10
2018-05-12T21:17:51.606Z,86.40
2018-05-12T21:20:19.953Z,86.20
2018-05-12T21:22:47.509Z,86.20
2018-05-12T21:25:15.084Z,86.40
2018-05-12T21:27:42.636Z,86.50
2018-05-12T21:30:10.215Z,86.70
2018-05-12T21:32:37.811Z,87.20
2018-05-12T21:35:06.155Z,86.90
2018-05-12T21:37:33.719Z,86.90
2018-05-12T21:40:02.068Z,87.00
2018-05-12T21:42:29.631Z,87.00
2018-05-12T21:44:57.211Z,87.00
2018-05-12T21:47:24.779Z,87.00
2018-05-12T21:49:52.359Z,87.30
2018-05-12T21:52:19.907Z,87.50
2018-05-12T21:54:47.603Z,87.50
2018-05-12T21:57:15.102Z,87.80
2018-05-12T21:59:42.672Z,88.10
2018-05-12T22:02:10.223Z,88.60
2018-05-12T22:04:38.543Z,87.50
2018-05-12T22:07:06.087Z,87.50
2018-05-12T22:09:33.651Z,87.60
2018-05-12T22:12:01.227Z,87.80
2018-05-12T22:14:28.795Z,87.80
2018-05-12T22:16:56.359Z,87.60
2018-05-12T22:19:23.940Z,87.70
2018-05-12T22:21:51.517Z,87.90
2018-05-12T22:24:19.067Z,89.10
2018-05-12T22:26:46.630Z,89.10
2018-05-12T22:29:14.188Z,88.80
2018-05-12T22:31:41.728Z,88.90
2018-05-12T22:34:09.281Z,88.90
2018-05-12T22:36:36.859Z,88.80
2018-05-12T22:39:04.446Z,88.70
2018-05-12T22:41:31.995Z,88.70
2018-05-12T22:43:59.610Z,89.10
2018-05-12T22:46:27.182Z,88.90
2018-05-12T22:48:55.526Z,88.70
2018-05-12T22:51:23.076Z,88.70
2018-05-12T22:53:50.620Z,88.80
2018-05-12T22:56:18.171Z,88.80
2018-05-12T22:58:46.483Z,88.80
2018-05-12T23:01:14.119Z,88.90
2018-05-12T23:03:41.676Z,88.90
2018-05-12T23:06:09.973Z,89.10
2018-05-12T23:08:37.519Z,89.00
2018-05-12T23:11:05.865Z,89.40
2018-05-12T23:13:33.443Z,89.40
2018-05-12T23:16:00.979Z,90.20
2018-05-12T23:18:28.542Z,90.30
2018-05-12T23:20:56.120Z,89.50
2018-05-12T23:23:23.681Z,89.60
2018-05-12T23:25:51.261Z,89.50
2018-05-12T23:28:18.853Z,89.70
2018-05-12T23:30:46.485Z,89.10
2018-05-12T23:33:14.047Z,89.30
2018-05-12T23:35:41.619Z,89.70
2018-05-12T23:38:09.176Z,89.90
2018-05-12T23:40:36.762Z,89.70
2018-05-12T23:43:04.306Z,90.00
2018-05-12T23:45:31.841Z,90.20
2018-05-12T23:47:59.394Z,90.10
2018-05-12T23:50:26.931Z,90.00
2018-05-12T23:52:55.243Z,89.20
2018-05-12T23:55:22.795Z,89.20
2018-05-12T23:57:50.353Z,89.00
